sensor_id;sensor_type;location;lat;lon;timestamp;P1;durP1;ratioP1;P2;durP2;ratioP2
13345;SDS011;6742;48.036;15.780;2023-07-02T00:02:17;4.78;;;2.75;;
13345;SDS011;6742;48.036;15.780;2023-07-02T00:04:44;2.83;;;2.53;;
13345;SDS011;6742;48.036;15.780;2023-07-02T00:07:11;5.28;;;2.70;;
13345;SDS011;6742;48.036;15.780;2023-07-02T00:09:38;3.50;;;2.60;;
13345;SDS011;6742;48.036;15.780;2023-07-02T00:12:07;5.40;;;3.08;;
13345;SDS011;6742;48.036;15.780;2023-07-02T00:14:34;6.35;;;2.90;;
13345;SDS011;6742;48.036;15.780;2023-07-02T00:17:01;4.82;;;2.72;;
13345;SDS011;6742;48.036;15.780;2023-07-02T00:19:29;4.45;;;2.92;;
13345;SDS011;6742;48.036;15.780;2023-07-02T00:21:55;3.50;;;2.78;;
13345;SDS011;6742;48.036;15.780;2023-07-02T00:24:23;2.75;;;2.55;;
13345;SDS011;6742;48.036;15.780;2023-07-02T00:26:50;4.45;;;2.30;;
13345;SDS011;6742;48.036;15.780;2023-07-02T00:29:18;4.03;;;2.55;;
13345;SDS011;6742;48.036;15.780;2023-07-02T00:31:45;6.75;;;2.95;;
13345;SDS011;6742;48.036;15.780;2023-07-02T00:34:12;5.63;;;2.60;;
13345;SDS011;6742;48.036;15.780;2023-07-02T00:36:39;3.03;;;2.63;;
13345;SDS011;6742;48.036;15.780;2023-07-02T00:39:06;5.50;;;2.65;;
13345;SDS011;6742;48.036;15.780;2023-07-02T00:41:33;3.47;;;2.65;;
13345;SDS011;6742;48.036;15.780;2023-07-02T00:44:00;3.35;;;2.72;;
13345;SDS011;6742;48.036;15.780;2023-07-02T00:46:29;4.32;;;2.80;;
13345;SDS011;6742;48.036;15.780;2023-07-02T00:48:57;3.08;;;2.55;;
13345;SDS011;6742;48.036;15.780;2023-07-02T00:51:27;3.83;;;2.75;;
13345;SDS011;6742;48.036;15.780;2023-07-02T00:53:54;7.38;;;2.90;;
13345;SDS011;6742;48.036;15.780;2023-07-02T00:56:23;4.22;;;3.28;;
13345;SDS011;6742;48.036;15.780;2023-07-02T00:58:53;3.55;;;2.60;;
13345;SDS011;6742;48.036;15.780;2023-07-02T01:01:24;3.33;;;2.70;;
13345;SDS011;6742;48.036;15.780;2023-07-02T01:03:55;2.70;;;2.45;;
13345;SDS011;6742;48.036;15.780;2023-07-02T01:06:24;4.32;;;2.70;;
13345;SDS011;6742;48.036;15.780;2023-07-02T01:08:56;4.47;;;2.85;;
13345;SDS011;6742;48.036;15.780;2023-07-02T01:11:25;2.95;;;2.55;;
13345;SDS011;6742;48.036;15.780;2023-07-02T01:13:56;4.47;;;2.88;;
13345;SDS011;6742;48.036;15.780;2023-07-02T01:16:29;3.25;;;2.90;;
13345;SDS011;6742;48.036;15.780;2023-07-02T01:18:59;3.00;;;2.70;;
13345;SDS011;6742;48.036;15.780;2023-07-02T01:21:30;3.28;;;2.70;;
13345;SDS011;6742;48.036;15.780;2023-07-02T01:23:58;3.97;;;2.50;;
13345;SDS011;6742;48.036;15.780;2023-07-02T01:26:27;3.15;;;2.55;;
13345;SDS011;6742;48.036;15.780;2023-07-02T01:28:58;3.25;;;2.60;;
13345;SDS011;6742;48.036;15.780;2023-07-02T01:31:26;3.20;;;2.70;;
13345;SDS011;6742;48.036;15.780;2023-07-02T01:33:53;4.30;;;2.50;;
13345;SDS011;6742;48.036;15.780;2023-07-02T01:36:19;2.97;;;2.38;;
13345;SDS011;6742;48.036;15.780;2023-07-02T01:38:48;4.15;;;2.58;;
13345;SDS011;6742;48.036;15.780;2023-07-02T01:41:15;4.65;;;2.80;;
13345;SDS011;6742;48.036;15.780;2023-07-02T01:43:42;3.17;;;2.45;;
13345;SDS011;6742;48.036;15.780;2023-07-02T01:46:09;4.05;;;2.40;;
13345;SDS011;6742;48.036;15.780;2023-07-02T01:48:35;4.20;;;3.20;;
13345;SDS011;6742;48.036;15.780;2023-07-02T01:51:02;3.13;;;2.50;;
13345;SDS011;6742;48.036;15.780;2023-07-02T01:53:29;3.85;;;2.95;;
13345;SDS011;6742;48.036;15.780;2023-07-02T01:55:58;4.85;;;2.65;;
13345;SDS011;6742;48.036;15.780;2023-07-02T01:58:24;3.22;;;2.50;;
13345;SDS011;6742;48.036;15.780;2023-07-02T02:00:51;2.63;;;2.42;;
13345;SDS011;6742;48.036;15.780;2023-07-02T02:03:18;2.72;;;2.33;;
13345;SDS011;6742;48.036;15.780;2023-07-02T02:05:45;4.13;;;2.67;;
13345;SDS011;6742;48.036;15.780;2023-07-02T02:08:12;5.13;;;2.70;;
13345;SDS011;6742;48.036;15.780;2023-07-02T02:10:39;4.97;;;2.75;;
13345;SDS011;6742;48.036;15.780;2023-07-02T02:13:07;5.35;;;3.05;;
13345;SDS011;6742;48.036;15.780;2023-07-02T02:15:34;4.55;;;2.45;;
13345;SDS011;6742;48.036;15.780;2023-07-02T02:18:01;3.45;;;2.53;;
13345;SDS011;6742;48.036;15.780;2023-07-02T02:20:28;3.20;;;2.65;;
13345;SDS011;6742;48.036;15.780;2023-07-02T02:22:55;2.90;;;2.70;;
13345;SDS011;6742;48.036;15.780;2023-07-02T02:25:22;5.60;;;2.75;;
13345;SDS011;6742;48.036;15.780;2023-07-02T02:27:49;4.00;;;2.60;;
13345;SDS011;6742;48.036;15.780;2023-07-02T02:30:17;3.88;;;2.80;;
13345;SDS011;6742;48.036;15.780;2023-07-02T02:32:45;3.25;;;2.58;;
13345;SDS011;6742;48.036;15.780;2023-07-02T02:35:11;4.13;;;2.67;;
13345;SDS011;6742;48.036;15.780;2023-07-02T02:37:39;3.30;;;2.22;;
13345;SDS011;6742;48.036;15.780;2023-07-02T02:40:07;3.90;;;2.67;;
13345;SDS011;6742;48.036;15.780;2023-07-02T02:42:35;4.88;;;2.70;;
13345;SDS011;6742;48.036;15.780;2023-07-02T02:45:02;4.28;;;2.70;;
13345;SDS011;6742;48.036;15.780;2023-07-02T02:47:31;3.20;;;2.55;;
13345;SDS011;6742;48.036;15.780;2023-07-02T02:49:58;2.80;;;2.55;;
13345;SDS011;6742;48.036;15.780;2023-07-02T02:52:25;3.45;;;2.50;;
13345;SDS011;6742;48.036;15.780;2023-07-02T02:54:52;4.07;;;3.40;;
13345;SDS011;6742;48.036;15.780;2023-07-02T02:57:19;2.70;;;2.50;;
13345;SDS011;6742;48.036;15.780;2023-07-02T02:59:46;4.35;;;2.63;;
13345;SDS011;6742;48.036;15.780;2023-07-02T03:02:13;4.25;;;2.38;;
13345;SDS011;6742;48.036;15.780;2023-07-02T03:04:41;6.35;;;2.75;;
13345;SDS011;6742;48.036;15.780;2023-07-02T03:07:09;4.43;;;2.40;;
13345;SDS011;6742;48.036;15.780;2023-07-02T03:09:36;5.47;;;2.67;;
13345;SDS011;6742;48.036;15.780;2023-07-02T03:12:03;2.85;;;2.60;;
13345;SDS011;6742;48.036;15.780;2023-07-02T03:14:30;4.82;;;2.50;;
13345;SDS011;6742;48.036;15.780;2023-07-02T03:16:57;3.40;;;2.47;;
13345;SDS011;6742;48.036;15.780;2023-07-02T03:19:24;2.95;;;2.70;;
13345;SDS011;6742;48.036;15.780;2023-07-02T03:21:53;3.42;;;2.80;;
13345;SDS011;6742;48.036;15.780;2023-07-02T03:24:21;4.05;;;2.63;;
13345;SDS011;6742;48.036;15.780;2023-07-02T03:26:50;3.03;;;2.72;;
13345;SDS011;6742;48.036;15.780;2023-07-02T03:29:17;2.88;;;2.50;;
13345;SDS011;6742;48.036;15.780;2023-07-02T03:31:45;3.53;;;2.80;;
13345;SDS011;6742;48.036;15.780;2023-07-02T03:34:12;3.00;;;2.80;;
13345;SDS011;6742;48.036;15.780;2023-07-02T03:36:39;4.78;;;2.80;;
13345;SDS011;6742;48.036;15.780;2023-07-02T03:39:07;2.70;;;2.50;;
13345;SDS011;6742;48.036;15.780;2023-07-02T03:41:34;3.17;;;2.50;;
13345;SDS011;6742;48.036;15.780;2023-07-02T03:44:01;2.92;;;2.70;;
13345;SDS011;6742;48.036;15.780;2023-07-02T03:46:28;4.40;;;2.75;;
13345;SDS011;6742;48.036;15.780;2023-07-02T03:48:56;4.15;;;2.90;;
13345;SDS011;6742;48.036;15.780;2023-07-02T03:51:23;4.57;;;2.55;;
13345;SDS011;6742;48.036;15.780;2023-07-02T03:53:50;3.05;;;2.80;;
13345;SDS011;6742;48.036;15.780;2023-07-02T03:56:18;3.63;;;3.00;;
13345;SDS011;6742;48.036;15.780;2023-07-02T03:58:45;3.10;;;2.63;;
13345;SDS011;6742;48.036;15.780;2023-07-02T04:01:12;4.60;;;3.00;;
13345;SDS011;6742;48.036;15.780;2023-07-02T04:03:40;3.83;;;3.10;;
13345;SDS011;6742;48.036;15.780;2023-07-02T04:06:08;3.97;;;3.10;;
13345;SDS011;6742;48.036;15.780;2023-07-02T04:08:35;5.18;;;3.40;;
13345;SDS011;6742;48.036;15.780;2023-07-02T04:11:02;5.35;;;3.25;;
13345;SDS011;6742;48.036;15.780;2023-07-02T04:13:30;3.13;;;2.83;;
13345;SDS011;6742;48.036;15.780;2023-07-02T04:15:57;4.03;;;2.92;;
13345;SDS011;6742;48.036;15.780;2023-07-02T04:18:24;3.83;;;3.13;;
13345;SDS011;6742;48.036;15.780;2023-07-02T04:20:51;3.47;;;2.80;;
13345;SDS011;6742;48.036;15.780;2023-07-02T04:23:18;3.20;;;2.90;;
13345;SDS011;6742;48.036;15.780;2023-07-02T04:25:45;3.05;;;2.70;;
13345;SDS011;6742;48.036;15.780;2023-07-02T04:28:12;3.75;;;3.00;;
13345;SDS011;6742;48.036;15.780;2023-07-02T04:30:40;2.80;;;2.60;;
13345;SDS011;6742;48.036;15.780;2023-07-02T04:33:08;3.63;;;2.80;;
13345;SDS011;6742;48.036;15.780;2023-07-02T04:35:39;3.85;;;2.83;;
13345;SDS011;6742;48.036;15.780;2023-07-02T04:38:06;4.28;;;2.55;;
13345;SDS011;6742;48.036;15.780;2023-07-02T04:40:33;3.00;;;2.63;;
13345;SDS011;6742;48.036;15.780;2023-07-02T04:43:00;3.92;;;2.75;;
13345;SDS011;6742;48.036;15.780;2023-07-02T04:45:29;2.85;;;2.50;;
13345;SDS011;6742;48.036;15.780;2023-07-02T04:48:02;3.03;;;2.60;;
13345;SDS011;6742;48.036;15.780;2023-07-02T04:50:29;3.08;;;2.70;;
13345;SDS011;6742;48.036;15.780;2023-07-02T04:52:56;2.80;;;2.60;;
13345;SDS011;6742;48.036;15.780;2023-07-02T04:55:23;2.90;;;2.70;;
13345;SDS011;6742;48.036;15.780;2023-07-02T04:57:50;2.40;;;2.20;;
13345;SDS011;6742;48.036;15.780;2023-07-02T05:00:18;4.05;;;2.50;;
13345;SDS011;6742;48.036;15.780;2023-07-02T05:02:47;2.80;;;2.60;;
13345;SDS011;6742;48.036;15.780;2023-07-02T05:05:15;2.80;;;2.22;;
13345;SDS011;6742;48.036;15.780;2023-07-02T05:07:42;3.33;;;2.38;;
13345;SDS011;6742;48.036;15.780;2023-07-02T05:10:09;2.88;;;2.30;;
13345;SDS011;6742;48.036;15.780;2023-07-02T05:12:36;2.50;;;2.30;;
13345;SDS011;6742;48.036;15.780;2023-07-02T05:15:03;2.78;;;2.45;;
13345;SDS011;6742;48.036;15.780;2023-07-02T05:17:31;3.83;;;2.42;;
13345;SDS011;6742;48.036;15.780;2023-07-02T05:19:59;2.47;;;2.28;;
13345;SDS011;6742;48.036;15.780;2023-07-02T05:22:28;4.07;;;3.13;;
13345;SDS011;6742;48.036;15.780;2023-07-02T05:24:54;3.65;;;2.17;;
13345;SDS011;6742;48.036;15.780;2023-07-02T05:27:21;2.30;;;2.10;;
13345;SDS011;6742;48.036;15.780;2023-07-02T05:29:48;2.03;;;1.92;;
13345;SDS011;6742;48.036;15.780;2023-07-02T05:32:15;2.35;;;1.85;;
13345;SDS011;6742;48.036;15.780;2023-07-02T05:34:42;2.00;;;1.73;;
13345;SDS011;6742;48.036;15.780;2023-07-02T05:37:09;3.08;;;2.15;;
13345;SDS011;6742;48.036;15.780;2023-07-02T05:39:38;3.33;;;1.90;;
13345;SDS011;6742;48.036;15.780;2023-07-02T05:42:05;2.63;;;2.13;;
13345;SDS011;6742;48.036;15.780;2023-07-02T05:44:32;2.10;;;1.90;;
13345;SDS011;6742;48.036;15.780;2023-07-02T05:46:59;2.13;;;1.90;;
13345;SDS011;6742;48.036;15.780;2023-07-02T05:49:26;2.65;;;1.80;;
13345;SDS011;6742;48.036;15.780;2023-07-02T05:51:53;2.35;;;2.00;;
13345;SDS011;6742;48.036;15.780;2023-07-02T05:54:20;2.28;;;2.08;;
13345;SDS011;6742;48.036;15.780;2023-07-02T05:56:48;2.38;;;2.17;;
13345;SDS011;6742;48.036;15.780;2023-07-02T05:59:15;2.28;;;2.08;;
13345;SDS011;6742;48.036;15.780;2023-07-02T06:01:44;2.50;;;2.28;;
13345;SDS011;6742;48.036;15.780;2023-07-02T06:04:11;2.03;;;1.83;;
13345;SDS011;6742;48.036;15.780;2023-07-02T06:06:38;2.40;;;2.00;;
13345;SDS011;6742;48.036;15.780;2023-07-02T06:09:05;2.95;;;2.25;;
13345;SDS011;6742;48.036;15.780;2023-07-02T06:11:32;2.67;;;1.70;;
13345;SDS011;6742;48.036;15.780;2023-07-02T06:14:00;4.55;;;2.08;;
13345;SDS011;6742;48.036;15.780;2023-07-02T06:16:27;2.63;;;2.13;;
13345;SDS011;6742;48.036;15.780;2023-07-02T06:18:54;2.38;;;2.17;;
13345;SDS011;6742;48.036;15.780;2023-07-02T06:21:21;2.47;;;2.28;;
13345;SDS011;6742;48.036;15.780;2023-07-02T06:23:48;3.00;;;1.90;;
13345;SDS011;6742;48.036;15.780;2023-07-02T06:26:15;3.25;;;2.22;;
13345;SDS011;6742;48.036;15.780;2023-07-02T06:28:42;1.88;;;1.77;;
13345;SDS011;6742;48.036;15.780;2023-07-02T06:31:11;2.55;;;2.15;;
13345;SDS011;6742;48.036;15.780;2023-07-02T06:33:38;3.15;;;2.30;;
13345;SDS011;6742;48.036;15.780;2023-07-02T06:36:07;2.40;;;2.20;;
13345;SDS011;6742;48.036;15.780;2023-07-02T06:38:34;2.42;;;2.20;;
13345;SDS011;6742;48.036;15.780;2023-07-02T06:41:01;5.10;;;2.28;;
13345;SDS011;6742;48.036;15.780;2023-07-02T06:43:28;2.28;;;2.08;;
13345;SDS011;6742;48.036;15.780;2023-07-02T06:45:54;2.42;;;2.20;;
13345;SDS011;6742;48.036;15.780;2023-07-02T06:48:23;3.05;;;2.05;;
13345;SDS011;6742;48.036;15.780;2023-07-02T06:50:50;3.63;;;2.17;;
13345;SDS011;6742;48.036;15.780;2023-07-02T06:53:16;2.05;;;1.90;;
13345;SDS011;6742;48.036;15.780;2023-07-02T06:55:43;2.22;;;1.80;;
13345;SDS011;6742;48.036;15.780;2023-07-02T06:58:10;2.08;;;1.77;;
13345;SDS011;6742;48.036;15.780;2023-07-02T07:00:37;3.53;;;1.83;;
13345;SDS011;6742;48.036;15.780;2023-07-02T07:03:05;1.92;;;1.83;;
13345;SDS011;6742;48.036;15.780;2023-07-02T07:05:33;4.18;;;2.20;;
13345;SDS011;6742;48.036;15.780;2023-07-02T07:08:00;2.10;;;1.70;;
13345;SDS011;6742;48.036;15.780;2023-07-02T07:10:27;2.83;;;1.80;;
13345;SDS011;6742;48.036;15.780;2023-07-02T07:12:59;2.38;;;1.90;;
13345;SDS011;6742;48.036;15.780;2023-07-02T07:15:26;2.50;;;2.20;;
13345;SDS011;6742;48.036;15.780;2023-07-02T07:17:53;1.98;;;1.88;;
13345;SDS011;6742;48.036;15.780;2023-07-02T07:20:20;2.25;;;2.05;;
13345;SDS011;6742;48.036;15.780;2023-07-02T07:22:48;2.13;;;1.85;;
13345;SDS011;6742;48.036;15.780;2023-07-02T07:25:15;2.00;;;1.90;;
13345;SDS011;6742;48.036;15.780;2023-07-02T07:27:42;3.13;;;1.80;;
13345;SDS011;6742;48.036;15.780;2023-07-02T07:30:09;2.55;;;1.80;;
13345;SDS011;6742;48.036;15.780;2023-07-02T07:32:37;3.10;;;1.63;;
13345;SDS011;6742;48.036;15.780;2023-07-02T07:35:04;1.83;;;1.70;;
13345;SDS011;6742;48.036;15.780;2023-07-02T07:37:32;1.75;;;1.65;;
13345;SDS011;6742;48.036;15.780;2023-07-02T07:40:00;2.33;;;1.77;;
13345;SDS011;6742;48.036;15.780;2023-07-02T07:42:27;2.25;;;1.90;;
13345;SDS011;6742;48.036;15.780;2023-07-02T07:44:54;1.90;;;1.80;;
13345;SDS011;6742;48.036;15.780;2023-07-02T07:47:21;2.10;;;1.90;;
13345;SDS011;6742;48.036;15.780;2023-07-02T07:49:48;2.00;;;1.90;;
13345;SDS011;6742;48.036;15.780;2023-07-02T07:52:15;2.42;;;1.75;;
13345;SDS011;6742;48.036;15.780;2023-07-02T07:54:42;2.25;;;1.80;;
13345;SDS011;6742;48.036;15.780;2023-07-02T07:57:10;2.17;;;2.00;;
13345;SDS011;6742;48.036;15.780;2023-07-02T07:59:37;4.03;;;2.33;;
13345;SDS011;6742;48.036;15.780;2023-07-02T08:02:04;3.17;;;2.00;;
13345;SDS011;6742;48.036;15.780;2023-07-02T08:04:32;2.08;;;1.88;;
13345;SDS011;6742;48.036;15.780;2023-07-02T08:06:59;1.90;;;1.80;;
13345;SDS011;6742;48.036;15.780;2023-07-02T08:09:29;2.97;;;1.90;;
13345;SDS011;6742;48.036;15.780;2023-07-02T08:11:56;2.78;;;2.10;;
13345;SDS011;6742;48.036;15.780;2023-07-02T08:14:24;2.33;;;1.90;;
13345;SDS011;6742;48.036;15.780;2023-07-02T08:16:51;2.13;;;1.90;;
13345;SDS011;6742;48.036;15.780;2023-07-02T08:19:18;3.33;;;2.20;;
13345;SDS011;6742;48.036;15.780;2023-07-02T08:21:46;1.85;;;1.75;;
13345;SDS011;6742;48.036;15.780;2023-07-02T08:24:13;2.00;;;1.90;;
13345;SDS011;6742;48.036;15.780;2023-07-02T08:26:40;2.25;;;2.05;;
13345;SDS011;6742;48.036;15.780;2023-07-02T08:29:07;3.22;;;2.08;;
13345;SDS011;6742;48.036;15.780;2023-07-02T08:31:35;2.03;;;1.92;;
13345;SDS011;6742;48.036;15.780;2023-07-02T08:34:02;2.63;;;2.00;;
13345;SDS011;6742;48.036;15.780;2023-07-02T08:36:29;2.38;;;2.17;;
13345;SDS011;6742;48.036;15.780;2023-07-02T08:38:56;2.83;;;2.05;;
13345;SDS011;6742;48.036;15.780;2023-07-02T08:41:22;2.50;;;2.03;;
13345;SDS011;6742;48.036;15.780;2023-07-02T08:43:50;2.88;;;2.10;;
13345;SDS011;6742;48.036;15.780;2023-07-02T08:46:20;2.95;;;1.95;;
13345;SDS011;6742;48.036;15.780;2023-07-02T08:48:49;2.25;;;2.03;;
13345;SDS011;6742;48.036;15.780;2023-07-02T08:51:16;2.08;;;1.88;;
13345;SDS011;6742;48.036;15.780;2023-07-02T08:53:43;2.63;;;1.88;;
13345;SDS011;6742;48.036;15.780;2023-07-02T08:56:10;2.00;;;1.77;;
13345;SDS011;6742;48.036;15.780;2023-07-02T08:58:37;2.05;;;1.85;;
13345;SDS011;6742;48.036;15.780;2023-07-02T09:01:05;2.30;;;1.98;;
13345;SDS011;6742;48.036;15.780;2023-07-02T09:03:33;2.08;;;1.88;;
13345;SDS011;6742;48.036;15.780;2023-07-02T09:06:03;3.13;;;1.92;;
13345;SDS011;6742;48.036;15.780;2023-07-02T09:08:31;2.20;;;2.00;;
13345;SDS011;6742;48.036;15.780;2023-07-02T09:11:08;2.17;;;1.65;;
13345;SDS011;6742;48.036;15.780;2023-07-02T09:13:46;1.90;;;1.80;;
13345;SDS011;6742;48.036;15.780;2023-07-02T09:16:20;3.35;;;1.80;;
13345;SDS011;6742;48.036;15.780;2023-07-02T09:18:55;1.90;;;1.80;;
13345;SDS011;6742;48.036;15.780;2023-07-02T09:21:27;4.22;;;1.85;;
13345;SDS011;6742;48.036;15.780;2023-07-02T09:23:54;2.80;;;1.83;;
13345;SDS011;6742;48.036;15.780;2023-07-02T09:26:23;1.77;;;1.60;;
13345;SDS011;6742;48.036;15.780;2023-07-02T09:28:50;1.85;;;1.75;;
13345;SDS011;6742;48.036;15.780;2023-07-02T09:31:26;1.90;;;1.75;;
13345;SDS011;6742;48.036;15.780;2023-07-02T09:34:00;2.25;;;1.90;;
13345;SDS011;6742;48.036;15.780;2023-07-02T09:36:29;2.30;;;2.10;;
13345;SDS011;6742;48.036;15.780;2023-07-02T09:38:56;1.90;;;1.80;;
13345;SDS011;6742;48.036;15.780;2023-07-02T09:41:23;1.90;;;1.70;;
13345;SDS011;6742;48.036;15.780;2023-07-02T09:43:50;2.65;;;1.80;;
13345;SDS011;6742;48.036;15.780;2023-07-02T09:46:17;2.75;;;1.83;;
13345;SDS011;6742;48.036;15.780;2023-07-02T09:48:44;2.10;;;1.70;;
13345;SDS011;6742;48.036;15.780;2023-07-02T09:51:11;2.47;;;1.92;;
13345;SDS011;6742;48.036;15.780;2023-07-02T09:53:40;4.03;;;2.03;;
13345;SDS011;6742;48.036;15.780;2023-07-02T09:56:06;2.20;;;1.85;;
13345;SDS011;6742;48.036;15.780;2023-07-02T09:58:34;2.17;;;1.98;;
13345;SDS011;6742;48.036;15.780;2023-07-02T10:01:01;2.30;;;2.10;;
13345;SDS011;6742;48.036;15.780;2023-07-02T10:03:29;2.85;;;1.90;;
13345;SDS011;6742;48.036;15.780;2023-07-02T10:06:03;3.58;;;2.00;;
13345;SDS011;6742;48.036;15.780;2023-07-02T10:08:31;2.05;;;1.75;;
13345;SDS011;6742;48.036;15.780;2023-07-02T10:11:09;3.17;;;2.03;;
13345;SDS011;6742;48.036;15.780;2023-07-02T10:13:38;2.65;;;2.10;;
13345;SDS011;6742;48.036;15.780;2023-07-02T10:16:06;2.00;;;1.80;;
13345;SDS011;6742;48.036;15.780;2023-07-02T10:18:33;2.67;;;2.08;;
13345;SDS011;6742;48.036;15.780;2023-07-02T10:21:00;2.10;;;1.90;;
13345;SDS011;6742;48.036;15.780;2023-07-02T10:23:39;2.55;;;2.35;;
13345;SDS011;6742;48.036;15.780;2023-07-02T10:26:12;3.63;;;2.13;;
13345;SDS011;6742;48.036;15.780;2023-07-02T10:28:41;2.88;;;1.88;;
13345;SDS011;6742;48.036;15.780;2023-07-02T10:31:18;1.92;;;1.83;;
13345;SDS011;6742;48.036;15.780;2023-07-02T10:33:46;2.10;;;1.90;;
13345;SDS011;6742;48.036;15.780;2023-07-02T10:36:19;2.05;;;1.95;;
13345;SDS011;6742;48.036;15.780;2023-07-02T10:38:47;1.95;;;1.80;;
13345;SDS011;6742;48.036;15.780;2023-07-02T10:41:24;2.15;;;2.00;;
13345;SDS011;6742;48.036;15.780;2023-07-02T10:43:51;2.10;;;1.90;;
13345;SDS011;6742;48.036;15.780;2023-07-02T10:46:19;2.20;;;2.00;;
13345;SDS011;6742;48.036;15.780;2023-07-02T10:48:52;3.35;;;1.95;;
13345;SDS011;6742;48.036;15.780;2023-07-02T10:51:20;2.00;;;1.80;;
13345;SDS011;6742;48.036;15.780;2023-07-02T10:53:56;4.18;;;1.90;;
13345;SDS011;6742;48.036;15.780;2023-07-02T10:56:25;2.08;;;1.88;;
13345;SDS011;6742;48.036;15.780;2023-07-02T10:58:52;2.00;;;1.90;;
13345;SDS011;6742;48.036;15.780;2023-07-02T11:01:23;1.80;;;1.70;;
13345;SDS011;6742;48.036;15.780;2023-07-02T11:03:57;2.38;;;2.13;;
13345;SDS011;6742;48.036;15.780;2023-07-02T11:06:25;2.40;;;1.80;;
13345;SDS011;6742;48.036;15.780;2023-07-02T11:08:53;2.17;;;1.98;;
13345;SDS011;6742;48.036;15.780;2023-07-02T11:11:21;1.95;;;1.75;;
13345;SDS011;6742;48.036;15.780;2023-07-02T11:13:50;2.65;;;2.20;;
13345;SDS011;6742;48.036;15.780;2023-07-02T11:16:21;3.95;;;2.08;;
13345;SDS011;6742;48.036;15.780;2023-07-02T11:18:51;2.10;;;1.80;;
13345;SDS011;6742;48.036;15.780;2023-07-02T11:21:19;2.40;;;1.98;;
13345;SDS011;6742;48.036;15.780;2023-07-02T11:23:46;2.78;;;2.00;;
13345;SDS011;6742;48.036;15.780;2023-07-02T11:26:13;2.15;;;1.95;;
13345;SDS011;6742;48.036;15.780;2023-07-02T11:28:50;2.58;;;2.25;;
13345;SDS011;6742;48.036;15.780;2023-07-02T11:31:24;4.05;;;1.90;;
13345;SDS011;6742;48.036;15.780;2023-07-02T11:33:52;3.42;;;2.00;;
13345;SDS011;6742;48.036;15.780;2023-07-02T11:36:19;2.13;;;1.90;;
13345;SDS011;6742;48.036;15.780;2023-07-02T11:38:48;2.28;;;1.95;;
13345;SDS011;6742;48.036;15.780;2023-07-02T11:41:15;2.83;;;2.20;;
13345;SDS011;6742;48.036;15.780;2023-07-02T11:43:42;2.15;;;1.90;;
13345;SDS011;6742;48.036;15.780;2023-07-02T11:46:10;4.28;;;1.90;;
13345;SDS011;6742;48.036;15.780;2023-07-02T11:48:37;3.50;;;2.00;;
13345;SDS011;6742;48.036;15.780;2023-07-02T11:51:04;3.92;;;2.03;;
13345;SDS011;6742;48.036;15.780;2023-07-02T11:53:31;1.83;;;1.70;;
13345;SDS011;6742;48.036;15.780;2023-07-02T11:55:58;2.22;;;2.00;;
13345;SDS011;6742;48.036;15.780;2023-07-02T11:58:25;2.78;;;1.55;;
13345;SDS011;6742;48.036;15.780;2023-07-02T12:00:52;3.13;;;1.77;;
13345;SDS011;6742;48.036;15.780;2023-07-02T12:03:20;5.88;;;1.85;;
13345;SDS011;6742;48.036;15.780;2023-07-02T12:05:47;2.65;;;1.95;;
13345;SDS011;6742;48.036;15.780;2023-07-02T12:08:14;1.50;;;1.40;;
13345;SDS011;6742;48.036;15.780;2023-07-02T12:10:41;2.67;;;1.63;;
13345;SDS011;6742;48.036;15.780;2023-07-02T12:13:08;1.88;;;1.45;;
13345;SDS011;6742;48.036;15.780;2023-07-02T12:15:35;1.85;;;1.63;;
13345;SDS011;6742;48.036;15.780;2023-07-02T12:18:02;2.65;;;1.65;;
13345;SDS011;6742;48.036;15.780;2023-07-02T12:20:30;2.33;;;1.60;;
13345;SDS011;6742;48.036;15.780;2023-07-02T12:22:57;1.60;;;1.50;;
13345;SDS011;6742;48.036;15.780;2023-07-02T12:25:24;1.70;;;1.60;;
13345;SDS011;6742;48.036;15.780;2023-07-02T12:27:51;1.88;;;1.50;;
13345;SDS011;6742;48.036;15.780;2023-07-02T12:30:18;2.08;;;1.60;;
13345;SDS011;6742;48.036;15.780;2023-07-02T12:32:45;2.30;;;2.10;;
13345;SDS011;6742;48.036;15.780;2023-07-02T12:35:12;3.40;;;1.63;;
13345;SDS011;6742;48.036;15.780;2023-07-02T12:37:44;1.90;;;1.55;;
13345;SDS011;6742;48.036;15.780;2023-07-02T12:40:12;2.28;;;1.58;;
13345;SDS011;6742;48.036;15.780;2023-07-02T12:42:40;2.95;;;1.52;;
13345;SDS011;6742;48.036;15.780;2023-07-02T12:45:08;1.80;;;1.70;;
13345;SDS011;6742;48.036;15.780;2023-07-02T12:47:36;1.52;;;1.42;;
13345;SDS011;6742;48.036;15.780;2023-07-02T12:50:04;2.20;;;1.45;;
13345;SDS011;6742;48.036;15.780;2023-07-02T12:52:31;2.05;;;1.20;;
13345;SDS011;6742;48.036;15.780;2023-07-02T12:55:00;2.80;;;1.55;;
13345;SDS011;6742;48.036;15.780;2023-07-02T12:57:27;1.60;;;1.50;;
13345;SDS011;6742;48.036;15.780;2023-07-02T12:59:55;1.70;;;1.30;;
13345;SDS011;6742;48.036;15.780;2023-07-02T13:02:22;1.48;;;1.30;;
13345;SDS011;6742;48.036;15.780;2023-07-02T13:04:50;2.13;;;1.20;;
13345;SDS011;6742;48.036;15.780;2023-07-02T13:07:17;1.52;;;1.30;;
13345;SDS011;6742;48.036;15.780;2023-07-02T13:09:44;1.42;;;1.20;;
13345;SDS011;6742;48.036;15.780;2023-07-02T13:12:13;2.25;;;1.33;;
13345;SDS011;6742;48.036;15.780;2023-07-02T13:14:40;2.30;;;1.20;;
13345;SDS011;6742;48.036;15.780;2023-07-02T13:17:06;2.40;;;1.00;;
13345;SDS011;6742;48.036;15.780;2023-07-02T13:19:33;1.58;;;1.20;;
13345;SDS011;6742;48.036;15.780;2023-07-02T13:22:00;1.83;;;1.23;;
13345;SDS011;6742;48.036;15.780;2023-07-02T13:24:28;2.78;;;1.42;;
13345;SDS011;6742;48.036;15.780;2023-07-02T13:27:00;2.35;;;1.13;;
13345;SDS011;6742;48.036;15.780;2023-07-02T13:29:32;1.70;;;1.10;;
13345;SDS011;6742;48.036;15.780;2023-07-02T13:31:58;1.90;;;1.20;;
13345;SDS011;6742;48.036;15.780;2023-07-02T13:34:25;1.40;;;1.25;;
13345;SDS011;6742;48.036;15.780;2023-07-02T13:36:52;1.88;;;1.40;;
13345;SDS011;6742;48.036;15.780;2023-07-02T13:39:19;1.55;;;1.30;;
13345;SDS011;6742;48.036;15.780;2023-07-02T13:41:46;1.20;;;1.10;;
13345;SDS011;6742;48.036;15.780;2023-07-02T13:44:14;1.90;;;1.20;;
13345;SDS011;6742;48.036;15.780;2023-07-02T13:46:43;1.23;;;1.13;;
13345;SDS011;6742;48.036;15.780;2023-07-02T13:49:10;1.60;;;1.00;;
13345;SDS011;6742;48.036;15.780;2023-07-02T13:51:37;1.60;;;1.15;;
13345;SDS011;6742;48.036;15.780;2023-07-02T13:54:04;3.88;;;1.25;;
13345;SDS011;6742;48.036;15.780;2023-07-02T13:56:31;1.75;;;1.50;;
13345;SDS011;6742;48.036;15.780;2023-07-02T13:59:01;3.45;;;2.17;;
13345;SDS011;6742;48.036;15.780;2023-07-02T14:01:29;2.67;;;2.05;;
13345;SDS011;6742;48.036;15.780;2023-07-02T14:03:56;1.85;;;1.75;;
13345;SDS011;6742;48.036;15.780;2023-07-02T14:06:23;1.65;;;1.48;;
13345;SDS011;6742;48.036;15.780;2023-07-02T14:08:50;2.72;;;1.60;;
13345;SDS011;6742;48.036;15.780;2023-07-02T14:11:17;2.00;;;1.80;;
13345;SDS011;6742;48.036;15.780;2023-07-02T14:13:44;2.30;;;1.67;;
13345;SDS011;6742;48.036;15.780;2023-07-02T14:16:13;3.38;;;1.63;;
13345;SDS011;6742;48.036;15.780;2023-07-02T14:18:40;2.45;;;1.95;;
13345;SDS011;6742;48.036;15.780;2023-07-02T14:21:07;1.95;;;1.75;;
13345;SDS011;6742;48.036;15.780;2023-07-02T14:23:34;2.58;;;1.77;;
13345;SDS011;6742;48.036;15.780;2023-07-02T14:26:01;2.25;;;2.05;;
13345;SDS011;6742;48.036;15.780;2023-07-02T14:28:28;3.25;;;2.00;;
13345;SDS011;6742;48.036;15.780;2023-07-02T14:30:55;3.03;;;2.30;;
13345;SDS011;6742;48.036;15.780;2023-07-02T14:33:24;2.78;;;2.17;;
13345;SDS011;6742;48.036;15.780;2023-07-02T14:35:52;3.20;;;2.03;;
13345;SDS011;6742;48.036;15.780;2023-07-02T14:38:19;2.50;;;2.22;;
13345;SDS011;6742;48.036;15.780;2023-07-02T14:40:47;3.38;;;2.20;;
13345;SDS011;6742;48.036;15.780;2023-07-02T14:43:14;3.33;;;2.47;;
13345;SDS011;6742;48.036;15.780;2023-07-02T14:45:43;3.65;;;2.20;;
13345;SDS011;6742;48.036;15.780;2023-07-02T14:48:12;2.65;;;2.30;;
13345;SDS011;6742;48.036;15.780;2023-07-02T14:50:45;2.85;;;2.55;;
13345;SDS011;6742;48.036;15.780;2023-07-02T14:53:14;3.50;;;2.30;;